Long Pond, PA (18334)

6:05 AM EDT on October 01, 2014 (GMT -0400)
Pinecrest Lake | Change Station
CLOSE
Current Station
Personal Weather Station
Location: Pocono Pines, PA
Elevation: 2032 ft
Nearby Weather Stations

Elev 2032 ft 41.09 °N, 75.44 °W | Updated 1 second ago

Overcast
Overcast
56.6 °F
Feels Like 56.6 °F
N
0.0
Wind Variable Wind from SE

Today
High -- | Low -- °F
--% Chance of Precip.
Yesterday
High -- | Low -- °F
Precip. -- in
6:58 AM 6:43 PM
Waxing Crescent, 46% visible
Pressure 30.01 in
Visibility 9.0 miles
Clouds Overcast 700 ft
Dew Point 56 °F
Humidity 97%
Rainfall 0.00 in
Snow Depth Not available.
UV 0 out of 12
Pollen 1.90 out of 12
Air Quality Not available.
Flu Activity Not available.
METAR KMPO 010953Z AUTO 00000KT 9SM OVC007 14/12 A3002 RMK AO2 CIG 006V011 SLP161 T01390117 TSNO $

More Conditions Fewer Conditions

Pressure 30.01 in
Visibility 9.0 miles
Clouds Overcast 700 ft
Dew Point 56 °F
Humidity 97%
Rainfall 0.00 in
Snow Depth Not available.
UV 0 out of 12
Pollen 1.90 out of 12
Air Quality Not available.
Flu Activity Not available.
METAR KMPO 010953Z AUTO 00000KT 9SM OVC007 14/12 A3002 RMK AO2 CIG 006V011 SLP161 T01390117 TSNO $

More Conditions Fewer Conditions

10-Day Weather Forecast

Almanac

Astronomy

Oct. 01, 2014 Rise Set
Actual Time 6:58 AM EDT 6:43 PM EDT
Civil Twilight 6:31 AM EDT 7:11 PM EDT
Nautical Twilight 5:59 AM EDT 7:43 PM EDT
Astronomical Twilight 5:26 AM EDT 8:15 PM EDT
Moon 1:59 PM EDT No Moon Set
Length of Visible Light 12h 40m
Length of Day
11h 45m
Tomorrow will be 2m 43s shorter.
Waxing Crescent, 46% of the Moon is Illuminated
Today
Waxing Crescent
Oct 1
First Quarter
Oct 8
Full
Oct 15
Last Quarter
Oct 23
New

Today's Extremes

State Highs State Lows

Community

WunderPhotos

Upload Photos

1,757,904 photos uploaded!

WunderBlogs® & News

Nearby

Snow Depth

Station Depth Elevation
No new snow has been reported.

Earthquake Activity

City Distance Mag. Time & Date
No recent earthquake activity has been reported nearby.
Minimum magnitude displayed is 2.5.

Coastal Water Temperatures

Place Temperature
No Stations Reporting

Nearby Weather Stations